sensor_id;sensor_type;location;lat;lon;timestamp;P1;durP1;ratioP1;P2;durP2;ratioP2
21095;SDS011;10706;49.036;12.112;2022-11-12T00:00:40;61.43;;;7.30;;
21095;SDS011;10706;49.036;12.112;2022-11-12T00:03:07;69.27;;;8.43;;
21095;SDS011;10706;49.036;12.112;2022-11-12T00:05:34;64.80;;;7.80;;
21095;SDS011;10706;49.036;12.112;2022-11-12T00:08:00;76.20;;;8.90;;
21095;SDS011;10706;49.036;12.112;2022-11-12T00:10:26;58.13;;;8.17;;
21095;SDS011;10706;49.036;12.112;2022-11-12T00:12:52;29.47;;;7.27;;
21095;SDS011;10706;49.036;12.112;2022-11-12T00:15:19;77.10;;;8.80;;
21095;SDS011;10706;49.036;12.112;2022-11-12T00:17:45;57.00;;;7.53;;
21095;SDS011;10706;49.036;12.112;2022-11-12T00:20:11;111.63;;;9.87;;
21095;SDS011;10706;49.036;12.112;2022-11-12T00:22:37;56.80;;;8.03;;
21095;SDS011;10706;49.036;12.112;2022-11-12T00:25:03;60.20;;;8.80;;
21095;SDS011;10706;49.036;12.112;2022-11-12T00:27:33;75.03;;;8.13;;
21095;SDS011;10706;49.036;12.112;2022-11-12T00:29:59;68.50;;;9.10;;
21095;SDS011;10706;49.036;12.112;2022-11-12T00:32:25;66.47;;;8.23;;
21095;SDS011;10706;49.036;12.112;2022-11-12T00:34:51;52.80;;;8.33;;
21095;SDS011;10706;49.036;12.112;2022-11-12T00:37:17;48.90;;;8.40;;
21095;SDS011;10706;49.036;12.112;2022-11-12T00:39:44;35.03;;;7.63;;
21095;SDS011;10706;49.036;12.112;2022-11-12T00:42:10;52.50;;;9.10;;
21095;SDS011;10706;49.036;12.112;2022-11-12T00:44:36;70.43;;;8.80;;
21095;SDS011;10706;49.036;12.112;2022-11-12T00:47:02;32.73;;;6.63;;
21095;SDS011;10706;49.036;12.112;2022-11-12T00:49:28;44.83;;;7.10;;
21095;SDS011;10706;49.036;12.112;2022-11-12T00:51:54;48.97;;;8.13;;
21095;SDS011;10706;49.036;12.112;2022-11-12T00:54:19;31.57;;;6.97;;
21095;SDS011;10706;49.036;12.112;2022-11-12T00:56:46;49.43;;;7.00;;
21095;SDS011;10706;49.036;12.112;2022-11-12T00:59:12;38.40;;;7.20;;
21095;SDS011;10706;49.036;12.112;2022-11-12T01:01:38;48.13;;;6.97;;
21095;SDS011;10706;49.036;12.112;2022-11-12T01:04:05;59.67;;;7.87;;
21095;SDS011;10706;49.036;12.112;2022-11-12T01:06:31;28.80;;;7.27;;
21095;SDS011;10706;49.036;12.112;2022-11-12T01:08:57;32.23;;;6.80;;
21095;SDS011;10706;49.036;12.112;2022-11-12T01:11:24;30.30;;;6.33;;
21095;SDS011;10706;49.036;12.112;2022-11-12T01:13:53;37.70;;;6.87;;
21095;SDS011;10706;49.036;12.112;2022-11-12T01:16:26;36.27;;;6.07;;
21095;SDS011;10706;49.036;12.112;2022-11-12T01:18:55;33.43;;;6.30;;
21095;SDS011;10706;49.036;12.112;2022-11-12T01:21:24;35.30;;;6.30;;
21095;SDS011;10706;49.036;12.112;2022-11-12T01:23:55;48.13;;;5.90;;
21095;SDS011;10706;49.036;12.112;2022-11-12T01:26:22;29.50;;;6.00;;
21095;SDS011;10706;49.036;12.112;2022-11-12T01:28:49;27.17;;;5.83;;
21095;SDS011;10706;49.036;12.112;2022-11-12T01:33:47;39.83;;;5.30;;
21095;SDS011;10706;49.036;12.112;2022-11-12T01:36:17;45.77;;;6.70;;
21095;SDS011;10706;49.036;12.112;2022-11-12T01:38:44;51.93;;;5.93;;
21095;SDS011;10706;49.036;12.112;2022-11-12T01:41:12;39.20;;;6.07;;
21095;SDS011;10706;49.036;12.112;2022-11-12T01:43:42;58.07;;;7.77;;
21095;SDS011;10706;49.036;12.112;2022-11-12T01:46:22;56.53;;;6.80;;
21095;SDS011;10706;49.036;12.112;2022-11-12T01:48:54;35.97;;;5.97;;
21095;SDS011;10706;49.036;12.112;2022-11-12T01:51:28;50.63;;;6.37;;
21095;SDS011;10706;49.036;12.112;2022-11-12T01:54:01;35.87;;;6.33;;
21095;SDS011;10706;49.036;12.112;2022-11-12T01:56:30;39.17;;;6.23;;
21095;SDS011;10706;49.036;12.112;2022-11-12T01:59:01;46.53;;;5.77;;
21095;SDS011;10706;49.036;12.112;2022-11-12T02:01:34;103.00;;;7.90;;
21095;SDS011;10706;49.036;12.112;2022-11-12T02:04:01;70.80;;;7.83;;
21095;SDS011;10706;49.036;12.112;2022-11-12T02:06:27;43.77;;;6.77;;
21095;SDS011;10706;49.036;12.112;2022-11-12T02:08:54;24.53;;;5.30;;
21095;SDS011;10706;49.036;12.112;2022-11-12T02:11:20;27.27;;;5.30;;
21095;SDS011;10706;49.036;12.112;2022-11-12T02:13:47;40.63;;;5.87;;
21095;SDS011;10706;49.036;12.112;2022-11-12T02:16:37;40.43;;;6.73;;
21095;SDS011;10706;49.036;12.112;2022-11-12T02:19:06;43.63;;;7.40;;
21095;SDS011;10706;49.036;12.112;2022-11-12T02:21:35;42.47;;;6.53;;
21095;SDS011;10706;49.036;12.112;2022-11-12T02:24:03;75.93;;;7.70;;
21095;SDS011;10706;49.036;12.112;2022-11-12T02:26:37;41.17;;;5.53;;
21095;SDS011;10706;49.036;12.112;2022-11-12T02:29:13;36.53;;;6.03;;
21095;SDS011;10706;49.036;12.112;2022-11-12T02:31:38;39.80;;;6.40;;
21095;SDS011;10706;49.036;12.112;2022-11-12T02:34:04;30.50;;;4.83;;
21095;SDS011;10706;49.036;12.112;2022-11-12T02:36:30;26.80;;;5.43;;
21095;SDS011;10706;49.036;12.112;2022-11-12T02:38:57;26.93;;;6.07;;
21095;SDS011;10706;49.036;12.112;2022-11-12T02:41:23;31.80;;;5.07;;
21095;SDS011;10706;49.036;12.112;2022-11-12T02:43:49;27.97;;;5.00;;
21095;SDS011;10706;49.036;12.112;2022-11-12T02:46:15;25.83;;;4.77;;
21095;SDS011;10706;49.036;12.112;2022-11-12T02:48:41;21.63;;;4.70;;
21095;SDS011;10706;49.036;12.112;2022-11-12T02:51:08;39.23;;;5.87;;
21095;SDS011;10706;49.036;12.112;2022-11-12T02:53:34;20.77;;;4.43;;
21095;SDS011;10706;49.036;12.112;2022-11-12T02:56:00;20.37;;;4.40;;
21095;SDS011;10706;49.036;12.112;2022-11-12T02:58:26;36.43;;;4.70;;
21095;SDS011;10706;49.036;12.112;2022-11-12T03:00:53;23.80;;;4.77;;
21095;SDS011;10706;49.036;12.112;2022-11-12T03:03:20;20.43;;;4.43;;
21095;SDS011;10706;49.036;12.112;2022-11-12T03:05:53;18.03;;;4.07;;
21095;SDS011;10706;49.036;12.112;2022-11-12T03:08:24;26.70;;;4.10;;
21095;SDS011;10706;49.036;12.112;2022-11-12T03:10:50;29.20;;;3.90;;
21095;SDS011;10706;49.036;12.112;2022-11-12T03:13:17;35.13;;;4.73;;
21095;SDS011;10706;49.036;12.112;2022-11-12T03:15:43;43.67;;;4.57;;
21095;SDS011;10706;49.036;12.112;2022-11-12T03:18:08;25.53;;;4.47;;
21095;SDS011;10706;49.036;12.112;2022-11-12T03:20:34;14.77;;;3.53;;
21095;SDS011;10706;49.036;12.112;2022-11-12T03:23:01;29.47;;;4.53;;
21095;SDS011;10706;49.036;12.112;2022-11-12T03:25:30;20.80;;;5.03;;
21095;SDS011;10706;49.036;12.112;2022-11-12T03:28:00;17.40;;;4.00;;
21095;SDS011;10706;49.036;12.112;2022-11-12T03:30:30;44.27;;;5.20;;
21095;SDS011;10706;49.036;12.112;2022-11-12T03:33:00;21.50;;;4.20;;
21095;SDS011;10706;49.036;12.112;2022-11-12T03:35:26;29.43;;;5.30;;
21095;SDS011;10706;49.036;12.112;2022-11-12T03:37:52;24.20;;;3.87;;
21095;SDS011;10706;49.036;12.112;2022-11-12T03:40:18;39.93;;;5.60;;
21095;SDS011;10706;49.036;12.112;2022-11-12T03:42:47;31.70;;;4.77;;
21095;SDS011;10706;49.036;12.112;2022-11-12T03:45:15;17.60;;;4.03;;
21095;SDS011;10706;49.036;12.112;2022-11-12T03:47:42;29.63;;;4.77;;
21095;SDS011;10706;49.036;12.112;2022-11-12T03:50:10;32.03;;;4.90;;
21095;SDS011;10706;49.036;12.112;2022-11-12T03:52:38;31.77;;;4.87;;
21095;SDS011;10706;49.036;12.112;2022-11-12T03:55:08;31.23;;;4.77;;
21095;SDS011;10706;49.036;12.112;2022-11-12T03:57:33;22.67;;;3.73;;
21095;SDS011;10706;49.036;12.112;2022-11-12T03:59:59;23.57;;;4.40;;
21095;SDS011;10706;49.036;12.112;2022-11-12T04:02:25;15.60;;;3.90;;
21095;SDS011;10706;49.036;12.112;2022-11-12T04:04:53;14.53;;;3.83;;
21095;SDS011;10706;49.036;12.112;2022-11-12T04:07:38;22.20;;;4.07;;
21095;SDS011;10706;49.036;12.112;2022-11-12T04:10:23;20.50;;;4.00;;
21095;SDS011;10706;49.036;12.112;2022-11-12T04:12:49;29.07;;;3.90;;
21095;SDS011;10706;49.036;12.112;2022-11-12T04:15:33;23.77;;;4.27;;
21095;SDS011;10706;49.036;12.112;2022-11-12T04:17:59;21.90;;;4.07;;
21095;SDS011;10706;49.036;12.112;2022-11-12T04:20:43;34.37;;;3.87;;
21095;SDS011;10706;49.036;12.112;2022-11-12T04:23:27;17.60;;;4.80;;
21095;SDS011;10706;49.036;12.112;2022-11-12T04:25:53;33.13;;;4.60;;
21095;SDS011;10706;49.036;12.112;2022-11-12T04:28:37;59.17;;;5.93;;
21095;SDS011;10706;49.036;12.112;2022-11-12T04:31:03;49.40;;;4.97;;
21095;SDS011;10706;49.036;12.112;2022-11-12T04:33:29;40.53;;;4.53;;
21095;SDS011;10706;49.036;12.112;2022-11-12T04:35:55;43.47;;;5.13;;
21095;SDS011;10706;49.036;12.112;2022-11-12T04:38:21;25.63;;;4.63;;
21095;SDS011;10706;49.036;12.112;2022-11-12T04:40:47;51.50;;;5.47;;
21095;SDS011;10706;49.036;12.112;2022-11-12T04:43:31;42.93;;;4.80;;
21095;SDS011;10706;49.036;12.112;2022-11-12T04:46:15;42.17;;;4.80;;
21095;SDS011;10706;49.036;12.112;2022-11-12T04:48:41;29.40;;;4.53;;
21095;SDS011;10706;49.036;12.112;2022-11-12T04:51:07;27.60;;;4.10;;
21095;SDS011;10706;49.036;12.112;2022-11-12T04:53:52;48.17;;;4.50;;
21095;SDS011;10706;49.036;12.112;2022-11-12T04:56:18;29.03;;;4.17;;
21095;SDS011;10706;49.036;12.112;2022-11-12T04:58:44;61.40;;;5.30;;
21095;SDS011;10706;49.036;12.112;2022-11-12T05:01:10;45.07;;;4.90;;
21095;SDS011;10706;49.036;12.112;2022-11-12T05:03:35;65.43;;;6.23;;
21095;SDS011;10706;49.036;12.112;2022-11-12T05:06:02;48.50;;;6.13;;
21095;SDS011;10706;49.036;12.112;2022-11-12T05:08:53;44.60;;;5.23;;
21095;SDS011;10706;49.036;12.112;2022-11-12T05:11:19;32.90;;;4.63;;
21095;SDS011;10706;49.036;12.112;2022-11-12T05:13:45;64.60;;;6.33;;
21095;SDS011;10706;49.036;12.112;2022-11-12T05:16:11;76.37;;;7.47;;
21095;SDS011;10706;49.036;12.112;2022-11-12T05:18:36;84.27;;;7.83;;
21095;SDS011;10706;49.036;12.112;2022-11-12T05:21:02;43.97;;;4.83;;
21095;SDS011;10706;49.036;12.112;2022-11-12T05:23:48;55.00;;;5.33;;
21095;SDS011;10706;49.036;12.112;2022-11-12T05:26:14;60.03;;;5.47;;
21095;SDS011;10706;49.036;12.112;2022-11-12T05:28:40;48.43;;;5.47;;
21095;SDS011;10706;49.036;12.112;2022-11-12T05:31:06;55.17;;;5.53;;
21095;SDS011;10706;49.036;12.112;2022-11-12T05:33:32;25.50;;;4.10;;
21095;SDS011;10706;49.036;12.112;2022-11-12T05:35:58;39.30;;;4.77;;
21095;SDS011;10706;49.036;12.112;2022-11-12T05:38:24;39.47;;;4.83;;
21095;SDS011;10706;49.036;12.112;2022-11-12T05:40:51;46.47;;;4.63;;
21095;SDS011;10706;49.036;12.112;2022-11-12T05:43:17;42.93;;;4.43;;
21095;SDS011;10706;49.036;12.112;2022-11-12T05:45:43;43.83;;;4.83;;
21095;SDS011;10706;49.036;12.112;2022-11-12T05:48:09;31.13;;;3.97;;
21095;SDS011;10706;49.036;12.112;2022-11-12T05:50:35;16.53;;;3.00;;
21095;SDS011;10706;49.036;12.112;2022-11-12T05:53:00;43.80;;;4.90;;
21095;SDS011;10706;49.036;12.112;2022-11-12T05:55:26;46.77;;;5.93;;
21095;SDS011;10706;49.036;12.112;2022-11-12T05:57:52;36.40;;;4.67;;
21095;SDS011;10706;49.036;12.112;2022-11-12T06:00:18;43.73;;;4.37;;
21095;SDS011;10706;49.036;12.112;2022-11-12T06:02:43;40.53;;;4.17;;
21095;SDS011;10706;49.036;12.112;2022-11-12T06:05:10;26.60;;;3.90;;
21095;SDS011;10706;49.036;12.112;2022-11-12T06:07:36;52.40;;;5.27;;
21095;SDS011;10706;49.036;12.112;2022-11-12T06:10:01;45.47;;;4.63;;
21095;SDS011;10706;49.036;12.112;2022-11-12T06:12:27;23.93;;;4.03;;
21095;SDS011;10706;49.036;12.112;2022-11-12T06:14:53;20.00;;;3.93;;
21095;SDS011;10706;49.036;12.112;2022-11-12T06:17:19;22.07;;;4.50;;
21095;SDS011;10706;49.036;12.112;2022-11-12T06:19:45;39.17;;;4.47;;
21095;SDS011;10706;49.036;12.112;2022-11-12T06:22:10;35.47;;;4.30;;
21095;SDS011;10706;49.036;12.112;2022-11-12T06:24:36;55.27;;;5.00;;
21095;SDS011;10706;49.036;12.112;2022-11-12T06:27:02;43.53;;;4.90;;
21095;SDS011;10706;49.036;12.112;2022-11-12T06:29:27;25.10;;;3.63;;
21095;SDS011;10706;49.036;12.112;2022-11-12T06:31:54;49.93;;;6.10;;
21095;SDS011;10706;49.036;12.112;2022-11-12T06:34:19;60.20;;;5.20;;
21095;SDS011;10706;49.036;12.112;2022-11-12T06:36:45;22.03;;;3.93;;
21095;SDS011;10706;49.036;12.112;2022-11-12T06:39:12;41.10;;;4.73;;
21095;SDS011;10706;49.036;12.112;2022-11-12T06:41:38;25.83;;;4.80;;
21095;SDS011;10706;49.036;12.112;2022-11-12T06:44:04;18.70;;;4.07;;
21095;SDS011;10706;49.036;12.112;2022-11-12T06:46:30;47.07;;;5.10;;
21095;SDS011;10706;49.036;12.112;2022-11-12T06:48:56;44.77;;;4.93;;
21095;SDS011;10706;49.036;12.112;2022-11-12T06:51:22;58.73;;;5.10;;
21095;SDS011;10706;49.036;12.112;2022-11-12T06:53:48;33.00;;;4.47;;
21095;SDS011;10706;49.036;12.112;2022-11-12T06:56:15;26.87;;;4.27;;
21095;SDS011;10706;49.036;12.112;2022-11-12T06:58:41;44.67;;;5.40;;
21095;SDS011;10706;49.036;12.112;2022-11-12T07:01:14;27.53;;;4.70;;
21095;SDS011;10706;49.036;12.112;2022-11-12T07:03:42;34.13;;;4.20;;
21095;SDS011;10706;49.036;12.112;2022-11-12T07:06:09;34.43;;;4.90;;
21095;SDS011;10706;49.036;12.112;2022-11-12T07:08:43;31.57;;;4.30;;
21095;SDS011;10706;49.036;12.112;2022-11-12T07:11:09;18.50;;;4.03;;
21095;SDS011;10706;49.036;12.112;2022-11-12T07:13:35;33.97;;;4.30;;
21095;SDS011;10706;49.036;12.112;2022-11-12T07:16:01;28.03;;;4.30;;
21095;SDS011;10706;49.036;12.112;2022-11-12T07:18:30;24.20;;;4.27;;
21095;SDS011;10706;49.036;12.112;2022-11-12T07:20:57;30.97;;;4.37;;
21095;SDS011;10706;49.036;12.112;2022-11-12T07:23:25;26.00;;;4.40;;
21095;SDS011;10706;49.036;12.112;2022-11-12T07:25:56;32.17;;;4.47;;
21095;SDS011;10706;49.036;12.112;2022-11-12T07:28:27;26.67;;;4.70;;
21095;SDS011;10706;49.036;12.112;2022-11-12T07:30:57;26.00;;;5.17;;
21095;SDS011;10706;49.036;12.112;2022-11-12T07:33:25;35.17;;;6.97;;
21095;SDS011;10706;49.036;12.112;2022-11-12T07:35:59;21.43;;;4.80;;
21095;SDS011;10706;49.036;12.112;2022-11-12T07:38:32;40.40;;;7.73;;
21095;SDS011;10706;49.036;12.112;2022-11-12T07:41:04;42.00;;;9.33;;
21095;SDS011;10706;49.036;12.112;2022-11-12T07:43:38;25.40;;;4.47;;
21095;SDS011;10706;49.036;12.112;2022-11-12T07:46:06;41.70;;;10.20;;
21095;SDS011;10706;49.036;12.112;2022-11-12T07:48:35;23.63;;;6.10;;
21095;SDS011;10706;49.036;12.112;2022-11-12T07:51:05;32.27;;;5.73;;
21095;SDS011;10706;49.036;12.112;2022-11-12T07:53:43;16.33;;;3.87;;
21095;SDS011;10706;49.036;12.112;2022-11-12T07:56:11;39.53;;;4.30;;
21095;SDS011;10706;49.036;12.112;2022-11-12T07:58:40;38.73;;;4.63;;
21095;SDS011;10706;49.036;12.112;2022-11-12T08:01:07;16.33;;;3.53;;
21095;SDS011;10706;49.036;12.112;2022-11-12T08:03:45;32.40;;;4.80;;
21095;SDS011;10706;49.036;12.112;2022-11-12T08:06:10;27.77;;;4.80;;
21095;SDS011;10706;49.036;12.112;2022-11-12T08:08:36;25.03;;;4.00;;
21095;SDS011;10706;49.036;12.112;2022-11-12T08:11:02;61.37;;;6.70;;
21095;SDS011;10706;49.036;12.112;2022-11-12T08:13:28;38.93;;;4.47;;
21095;SDS011;10706;49.036;12.112;2022-11-12T08:15:56;37.50;;;4.50;;
21095;SDS011;10706;49.036;12.112;2022-11-12T08:18:23;35.47;;;5.10;;
21095;SDS011;10706;49.036;12.112;2022-11-12T08:20:49;41.97;;;6.10;;
21095;SDS011;10706;49.036;12.112;2022-11-12T08:23:15;41.97;;;5.13;;
21095;SDS011;10706;49.036;12.112;2022-11-12T08:25:41;34.80;;;4.73;;
21095;SDS011;10706;49.036;12.112;2022-11-12T08:28:07;20.87;;;4.80;;
21095;SDS011;10706;49.036;12.112;2022-11-12T08:30:33;63.53;;;6.47;;
21095;SDS011;10706;49.036;12.112;2022-11-12T08:33:00;39.07;;;4.43;;
21095;SDS011;10706;49.036;12.112;2022-11-12T08:35:29;44.73;;;5.17;;
21095;SDS011;10706;49.036;12.112;2022-11-12T08:37:58;48.17;;;5.50;;
21095;SDS011;10706;49.036;12.112;2022-11-12T08:40:25;74.13;;;7.17;;
21095;SDS011;10706;49.036;12.112;2022-11-12T08:43:00;34.30;;;4.53;;
21095;SDS011;10706;49.036;12.112;2022-11-12T08:45:30;20.03;;;4.70;;
21095;SDS011;10706;49.036;12.112;2022-11-12T08:47:58;64.27;;;6.30;;
21095;SDS011;10706;49.036;12.112;2022-11-12T08:50:26;40.80;;;5.03;;
21095;SDS011;10706;49.036;12.112;2022-11-12T08:52:57;69.27;;;5.43;;
21095;SDS011;10706;49.036;12.112;2022-11-12T08:55:32;78.03;;;7.83;;
21095;SDS011;10706;49.036;12.112;2022-11-12T08:57:58;37.47;;;5.93;;
21095;SDS011;10706;49.036;12.112;2022-11-12T09:00:28;49.13;;;6.77;;
21095;SDS011;10706;49.036;12.112;2022-11-12T09:03:00;26.57;;;4.43;;
21095;SDS011;10706;49.036;12.112;2022-11-12T09:05:28;28.63;;;4.80;;
21095;SDS011;10706;49.036;12.112;2022-11-12T09:07:57;33.37;;;5.17;;
21095;SDS011;10706;49.036;12.112;2022-11-12T09:10:35;48.53;;;4.97;;
21095;SDS011;10706;49.036;12.112;2022-11-12T09:13:02;26.10;;;5.40;;
21095;SDS011;10706;49.036;12.112;2022-11-12T09:15:28;43.07;;;6.20;;
21095;SDS011;10706;49.036;12.112;2022-11-12T09:17:55;46.73;;;4.80;;
21095;SDS011;10706;49.036;12.112;2022-11-12T09:20:30;36.47;;;5.13;;
21095;SDS011;10706;49.036;12.112;2022-11-12T09:23:03;30.60;;;4.67;;
21095;SDS011;10706;49.036;12.112;2022-11-12T09:25:35;20.37;;;3.87;;
21095;SDS011;10706;49.036;12.112;2022-11-12T09:28:11;32.33;;;4.73;;
21095;SDS011;10706;49.036;12.112;2022-11-12T09:30:44;24.63;;;4.03;;
21095;SDS011;10706;49.036;12.112;2022-11-12T09:33:30;32.00;;;4.13;;
21095;SDS011;10706;49.036;12.112;2022-11-12T09:36:00;29.53;;;4.77;;
21095;SDS011;10706;49.036;12.112;2022-11-12T09:38:27;13.07;;;3.40;;
21095;SDS011;10706;49.036;12.112;2022-11-12T09:41:04;24.03;;;3.97;;
21095;SDS011;10706;49.036;12.112;2022-11-12T09:43:50;6.50;;;3.10;;
21095;SDS011;10706;49.036;12.112;2022-11-12T09:46:35;22.03;;;4.43;;
21095;SDS011;10706;49.036;12.112;2022-11-12T09:49:17;15.93;;;4.00;;
21095;SDS011;10706;49.036;12.112;2022-11-12T09:52:02;24.07;;;10.37;;
21095;SDS011;10706;49.036;12.112;2022-11-12T09:54:37;9.73;;;4.00;;
21095;SDS011;10706;49.036;12.112;2022-11-12T09:57:04;17.23;;;3.87;;
21095;SDS011;10706;49.036;12.112;2022-11-12T09:59:36;15.93;;;3.67;;
21095;SDS011;10706;49.036;12.112;2022-11-12T10:02:21;17.30;;;4.17;;
21095;SDS011;10706;49.036;12.112;2022-11-12T10:05:05;8.40;;;3.37;;
21095;SDS011;10706;49.036;12.112;2022-11-12T10:18:28;6.80;;;3.33;;
21095;SDS011;10706;49.036;12.112;2022-11-12T10:20:58;7.37;;;3.17;;
21095;SDS011;10706;49.036;12.112;2022-11-12T10:24:06;9.30;;;3.60;;
21095;SDS011;10706;49.036;12.112;2022-11-12T10:26:35;10.77;;;3.77;;
21095;SDS011;10706;49.036;12.112;2022-11-12T10:31:35;9.07;;;3.90;;
21095;SDS011;10706;49.036;12.112;2022-11-12T10:36:49;11.10;;;4.17;;
21095;SDS011;10706;49.036;12.112;2022-11-12T10:42:59;10.13;;;4.07;;
21095;SDS011;10706;49.036;12.112;2022-11-12T10:45:43;8.93;;;3.50;;
21095;SDS011;10706;49.036;12.112;2022-11-12T10:48:30;12.00;;;4.60;;
21095;SDS011;10706;49.036;12.112;2022-11-12T10:50:57;13.47;;;4.50;;
21095;SDS011;10706;49.036;12.112;2022-11-12T10:53:34;12.53;;;5.63;;
21095;SDS011;10706;49.036;12.112;2022-11-12T10:56:04;9.83;;;4.87;;
21095;SDS011;10706;49.036;12.112;2022-11-12T11:01:41;9.83;;;3.90;;
21095;SDS011;10706;49.036;12.112;2022-11-12T11:04:42;11.53;;;4.50;;
21095;SDS011;10706;49.036;12.112;2022-11-12T11:07:03;9.67;;;4.50;;
21095;SDS011;10706;49.036;12.112;2022-11-12T11:09:50;9.97;;;4.33;;
21095;SDS011;10706;49.036;12.112;2022-11-12T11:12:32;8.47;;;4.20;;
21095;SDS011;10706;49.036;12.112;2022-11-12T11:17:40;10.27;;;4.63;;
21095;SDS011;10706;49.036;12.112;2022-11-12T11:20:26;11.33;;;4.63;;
21095;SDS011;10706;49.036;12.112;2022-11-12T11:26:06;13.50;;;5.10;;
21095;SDS011;10706;49.036;12.112;2022-11-12T11:29:40;13.97;;;5.13;;
21095;SDS011;10706;49.036;12.112;2022-11-12T11:44:03;11.07;;;5.07;;
21095;SDS011;10706;49.036;12.112;2022-11-12T11:46:42;11.60;;;5.10;;
21095;SDS011;10706;49.036;12.112;2022-11-12T11:55:35;9.13;;;3.83;;
21095;SDS011;10706;49.036;12.112;2022-11-12T12:04:48;10.40;;;4.30;;
21095;SDS011;10706;49.036;12.112;2022-11-12T12:10:26;12.60;;;4.23;;
21095;SDS011;10706;49.036;12.112;2022-11-12T12:21:15;10.13;;;4.27;;
21095;SDS011;10706;49.036;12.112;2022-11-12T12:27:11;9.43;;;3.87;;
21095;SDS011;10706;49.036;12.112;2022-11-12T12:30:03;9.23;;;4.40;;
21095;SDS011;10706;49.036;12.112;2022-11-12T12:32:54;11.13;;;5.10;;
21095;SDS011;10706;49.036;12.112;2022-11-12T12:35:37;8.53;;;4.37;;
21095;SDS011;10706;49.036;12.112;2022-11-12T12:38:17;10.17;;;4.63;;
21095;SDS011;10706;49.036;12.112;2022-11-12T12:43:57;10.40;;;4.60;;
21095;SDS011;10706;49.036;12.112;2022-11-12T12:46:36;13.50;;;4.67;;
21095;SDS011;10706;49.036;12.112;2022-11-12T12:49:28;11.87;;;5.40;;
21095;SDS011;10706;49.036;12.112;2022-11-12T12:52:00;12.23;;;4.50;;
21095;SDS011;10706;49.036;12.112;2022-11-12T13:03:00;13.70;;;6.53;;
21095;SDS011;10706;49.036;12.112;2022-11-12T13:08:17;13.43;;;5.83;;
21095;SDS011;10706;49.036;12.112;2022-11-12T13:10:49;12.63;;;5.47;;
21095;SDS011;10706;49.036;12.112;2022-11-12T13:15:52;13.20;;;6.13;;
21095;SDS011;10706;49.036;12.112;2022-11-12T13:21:08;12.73;;;5.80;;
21095;SDS011;10706;49.036;12.112;2022-11-12T13:23:47;12.57;;;5.63;;
21095;SDS011;10706;49.036;12.112;2022-11-12T13:29:22;13.80;;;5.80;;
21095;SDS011;10706;49.036;12.112;2022-11-12T13:40:34;13.87;;;5.73;;
21095;SDS011;10706;49.036;12.112;2022-11-12T13:43:12;14.23;;;5.60;;
21095;SDS011;10706;49.036;12.112;2022-11-12T13:49:03;12.70;;;5.60;;
21095;SDS011;10706;49.036;12.112;2022-11-12T13:51:43;15.30;;;6.23;;
21095;SDS011;10706;49.036;12.112;2022-11-12T13:57:15;17.33;;;6.27;;
21095;SDS011;10706;49.036;12.112;2022-11-12T14:02:32;12.20;;;5.50;;
21095;SDS011;10706;49.036;12.112;2022-11-12T14:05:00;16.40;;;6.37;;
21095;SDS011;10706;49.036;12.112;2022-11-12T14:07:39;15.57;;;6.17;;
21095;SDS011;10706;49.036;12.112;2022-11-12T14:16:08;41.57;;;9.17;;
21095;SDS011;10706;49.036;12.112;2022-11-12T14:22:06;17.80;;;7.23;;
21095;SDS011;10706;49.036;12.112;2022-11-12T14:24:37;18.07;;;6.40;;
21095;SDS011;10706;49.036;12.112;2022-11-12T14:27:04;15.83;;;7.43;;
21095;SDS011;10706;49.036;12.112;2022-11-12T14:32:40;18.00;;;6.60;;
21095;SDS011;10706;49.036;12.112;2022-11-12T14:35:18;20.67;;;7.93;;
21095;SDS011;10706;49.036;12.112;2022-11-12T14:40:47;19.53;;;7.60;;
21095;SDS011;10706;49.036;12.112;2022-11-12T14:43:36;22.70;;;8.00;;
21095;SDS011;10706;49.036;12.112;2022-11-12T14:46:24;24.57;;;8.50;;
21095;SDS011;10706;49.036;12.112;2022-11-12T14:49:03;23.33;;;8.43;;
21095;SDS011;10706;49.036;12.112;2022-11-12T14:51:42;26.90;;;9.90;;
21095;SDS011;10706;49.036;12.112;2022-11-12T14:54:21;31.43;;;9.20;;
21095;SDS011;10706;49.036;12.112;2022-11-12T14:56:56;21.63;;;8.27;;
21095;SDS011;10706;49.036;12.112;2022-11-12T14:59:26;19.07;;;8.43;;
21095;SDS011;10706;49.036;12.112;2022-11-12T15:04:44;20.57;;;8.87;;
21095;SDS011;10706;49.036;12.112;2022-11-12T15:07:32;21.30;;;8.70;;
21095;SDS011;10706;49.036;12.112;2022-11-12T15:10:47;28.97;;;8.63;;
21095;SDS011;10706;49.036;12.112;2022-11-12T15:13:09;21.87;;;8.83;;
21095;SDS011;10706;49.036;12.112;2022-11-12T15:16:06;26.27;;;9.13;;
21095;SDS011;10706;49.036;12.112;2022-11-12T15:18:33;25.20;;;9.97;;
21095;SDS011;10706;49.036;12.112;2022-11-12T15:21:21;32.97;;;10.13;;
21095;SDS011;10706;49.036;12.112;2022-11-12T15:23:51;41.63;;;10.17;;
21095;SDS011;10706;49.036;12.112;2022-11-12T15:26:39;62.80;;;13.17;;
21095;SDS011;10706;49.036;12.112;2022-11-12T15:29:28;36.17;;;9.83;;
21095;SDS011;10706;49.036;12.112;2022-11-12T15:32:43;52.47;;;10.20;;
21095;SDS011;10706;49.036;12.112;2022-11-12T15:34:44;41.50;;;8.23;;
21095;SDS011;10706;49.036;12.112;2022-11-12T15:39:47;30.77;;;8.27;;
21095;SDS011;10706;49.036;12.112;2022-11-12T15:44:59;35.67;;;8.67;;
21095;SDS011;10706;49.036;12.112;2022-11-12T15:47:35;39.60;;;8.87;;
21095;SDS011;10706;49.036;12.112;2022-11-12T15:50:00;39.20;;;8.43;;
21095;SDS011;10706;49.036;12.112;2022-11-12T15:52:48;25.93;;;8.43;;
21095;SDS011;10706;49.036;12.112;2022-11-12T15:55:14;42.40;;;8.70;;
21095;SDS011;10706;49.036;12.112;2022-11-12T15:57:45;30.57;;;8.50;;
21095;SDS011;10706;49.036;12.112;2022-11-12T16:00:19;22.57;;;6.87;;
21095;SDS011;10706;49.036;12.112;2022-11-12T16:02:50;58.90;;;10.87;;
21095;SDS011;10706;49.036;12.112;2022-11-12T16:05:37;35.13;;;9.77;;
21095;SDS011;10706;49.036;12.112;2022-11-12T16:08:03;40.03;;;10.83;;
21095;SDS011;10706;49.036;12.112;2022-11-12T16:10:29;58.33;;;10.97;;
21095;SDS011;10706;49.036;12.112;2022-11-12T16:12:56;33.73;;;11.40;;
21095;SDS011;10706;49.036;12.112;2022-11-12T16:15:24;38.00;;;8.97;;
21095;SDS011;10706;49.036;12.112;2022-11-12T16:17:51;49.93;;;8.80;;
21095;SDS011;10706;49.036;12.112;2022-11-12T16:20:24;75.03;;;9.53;;
21095;SDS011;10706;49.036;12.112;2022-11-12T16:22:56;91.07;;;10.37;;
21095;SDS011;10706;49.036;12.112;2022-11-12T16:25:22;102.17;;;10.77;;
21095;SDS011;10706;49.036;12.112;2022-11-12T16:27:53;76.77;;;9.77;;
21095;SDS011;10706;49.036;12.112;2022-11-12T16:30:21;63.43;;;9.87;;
21095;SDS011;10706;49.036;12.112;2022-11-12T16:32:52;97.77;;;10.60;;
21095;SDS011;10706;49.036;12.112;2022-11-12T16:35:20;95.70;;;10.90;;
21095;SDS011;10706;49.036;12.112;2022-11-12T16:37:47;71.53;;;11.17;;
21095;SDS011;10706;49.036;12.112;2022-11-12T16:40:33;62.67;;;10.60;;
21095;SDS011;10706;49.036;12.112;2022-11-12T16:42:59;86.07;;;12.30;;
21095;SDS011;10706;49.036;12.112;2022-11-12T16:45:33;86.83;;;11.67;;
21095;SDS011;10706;49.036;12.112;2022-11-12T16:48:21;76.23;;;10.33;;
21095;SDS011;10706;49.036;12.112;2022-11-12T16:50:59;35.63;;;8.93;;
21095;SDS011;10706;49.036;12.112;2022-11-12T16:53:25;98.73;;;12.43;;
21095;SDS011;10706;49.036;12.112;2022-11-12T16:55:55;91.33;;;11.70;;
21095;SDS011;10706;49.036;12.112;2022-11-12T16:58:59;90.60;;;12.10;;